createdAt,value
2018-12-27T00:02:05.566Z,56.25
2018-12-27T00:04:36.092Z,56.48
2018-12-27T00:07:06.631Z,55.83
2018-12-27T00:09:37.028Z,56.28
2018-12-27T00:12:07.311Z,56.28
2018-12-27T00:14:37.926Z,55.97
2018-12-27T00:17:08.629Z,55.95
2018-12-27T00:19:38.900Z,55.70
2018-12-27T00:22:09.860Z,56.21
2018-12-27T00:24:40.543Z,55.70
2018-12-27T00:27:11.148Z,55.46
2018-12-27T00:29:41.786Z,55.31
2018-12-27T00:32:12.514Z,55.79
2018-12-27T00:34:42.901Z,55.87
2018-12-27T00:37:13.707Z,55.20
2018-12-27T00:39:44.188Z,55.68
2018-12-27T00:42:14.664Z,55.78
2018-12-27T00:44:45.338Z,55.49
2018-12-27T00:47:16.123Z,55.55
2018-12-27T00:49:46.831Z,55.54
2018-12-27T00:52:17.688Z,55.27
2018-12-27T00:54:48.200Z,55.07
2018-12-27T00:57:19.774Z,55.58
2018-12-27T00:59:50.472Z,55.60
2018-12-27T01:02:21.235Z,55.60
2018-12-27T01:04:51.737Z,55.51
2018-12-27T01:07:22.400Z,55.30
2018-12-27T01:09:52.810Z,54.96
2018-12-27T01:12:23.553Z,54.68
2018-12-27T01:14:54.279Z,54.59
2018-12-27T01:17:24.928Z,54.96
2018-12-27T01:19:55.342Z,54.76
2018-12-27T01:22:26.343Z,54.15
2018-12-27T01:24:57.066Z,54.20
2018-12-27T01:27:27.751Z,54.11
2018-12-27T01:29:58.461Z,54.58
2018-12-27T01:32:29.370Z,54.30
2018-12-27T01:34:59.761Z,53.96
2018-12-27T01:37:30.456Z,53.77
2018-12-27T01:40:00.957Z,54.04
2018-12-27T01:42:31.646Z,54.67
2018-12-27T01:45:02.046Z,54.34
2018-12-27T01:47:33.008Z,54.21
2018-12-27T01:50:03.730Z,54.20
2018-12-27T01:52:35.659Z,54.15
2018-12-27T01:55:06.132Z,54.07
2018-12-27T01:57:36.872Z,54.17
2018-12-27T02:00:07.673Z,53.94
2018-12-27T02:02:38.132Z,54.78
2018-12-27T02:05:08.553Z,54.94
2018-12-27T02:07:39.576Z,54.60
2018-12-27T02:10:09.961Z,54.79
2018-12-27T02:12:40.785Z,55.30
2018-12-27T02:15:11.588Z,55.09
2018-12-27T02:17:42.274Z,55.30
2018-12-27T02:20:12.912Z,55.55
2018-12-27T02:22:43.495Z,55.30
2018-12-27T02:25:13.920Z,55.31
2018-12-27T02:27:45.009Z,55.16
2018-12-27T02:30:15.619Z,55.49
2018-12-27T02:32:46.334Z,55.27
2018-12-27T02:35:16.830Z,55.77
2018-12-27T02:37:47.606Z,55.98
2018-12-27T02:40:18.029Z,55.94
2018-12-27T02:42:48.988Z,55.71
2018-12-27T02:45:19.688Z,55.93
2018-12-27T02:47:50.105Z,56.26
2018-12-27T02:50:20.751Z,56.06
2018-12-27T02:52:51.373Z,56.13
2018-12-27T02:55:22.004Z,55.77
2018-12-27T02:57:52.826Z,56.32
2018-12-27T03:00:23.205Z,56.38
2018-12-27T03:02:53.949Z,56.44
2018-12-27T03:05:25.390Z,56.18
2018-12-27T03:07:55.957Z,56.21
2018-12-27T03:10:26.626Z,56.74
2018-12-27T03:12:57.428Z,56.30
2018-12-27T03:15:27.914Z,56.47
2018-12-27T03:17:58.740Z,56.59
2018-12-27T03:20:29.519Z,56.58
2018-12-27T03:23:00.207Z,56.79
2018-12-27T03:25:30.910Z,56.55
2018-12-27T03:28:01.688Z,56.54
2018-12-27T03:30:32.417Z,56.57
2018-12-27T03:33:03.425Z,57.28
2018-12-27T03:35:33.813Z,57.67
2018-12-27T03:38:04.328Z,57.37
2018-12-27T03:40:35.032Z,57.58
2018-12-27T03:43:05.891Z,57.30
2018-12-27T03:45:36.301Z,57.29
2018-12-27T03:48:06.966Z,57.66
2018-12-27T03:50:37.440Z,57.71
2018-12-27T03:53:08.201Z,57.26
2018-12-27T03:55:38.917Z,57.27
2018-12-27T03:58:09.800Z,56.84
2018-12-27T04:00:40.515Z,56.74
2018-12-27T04:03:11.173Z,57.92
2018-12-27T04:05:41.663Z,57.66
2018-12-27T04:08:12.173Z,57.55
2018-12-27T04:10:42.589Z,58.15
2018-12-27T04:13:13.285Z,58.16
2018-12-27T04:15:43.952Z,57.90
2018-12-27T04:18:14.499Z,58.39
2018-12-27T04:20:44.781Z,58.33
2018-12-27T04:23:15.659Z,58.11
2018-12-27T04:25:46.462Z,57.79
2018-12-27T04:28:17.267Z,58.47
2018-12-27T04:30:47.555Z,58.86
2018-12-27T04:33:19.951Z,58.90
2018-12-27T04:35:51.497Z,59.33
2018-12-27T04:38:21.846Z,59.02
2018-12-27T04:40:52.217Z,59.57
2018-12-27T04:43:23.646Z,60.28
2018-12-27T04:45:54.282Z,60.38
2018-12-27T04:48:24.880Z,60.39
2018-12-27T04:50:55.662Z,60.24
2018-12-27T04:53:26.663Z,60.23
2018-12-27T04:55:57.441Z,60.90
2018-12-27T04:58:28.094Z,61.01
2018-12-27T05:00:58.561Z,60.38
2018-12-27T05:03:29.187Z,60.75
2018-12-27T05:05:59.533Z,60.89
2018-12-27T05:08:30.054Z,61.07
2018-12-27T05:11:00.653Z,60.89
2018-12-27T05:13:31.298Z,61.07
2018-12-27T05:16:01.562Z,61.80
2018-12-27T05:18:32.182Z,61.39
2018-12-27T05:21:03.046Z,61.60
2018-12-27T05:23:33.364Z,61.16
2018-12-27T05:26:03.658Z,61.57
2018-12-27T05:28:34.697Z,61.12
2018-12-27T05:31:04.962Z,61.84
2018-12-27T05:33:35.570Z,62.29
2018-12-27T05:36:06.118Z,62.14
2018-12-27T05:38:37.000Z,62.62
2018-12-27T05:41:07.271Z,62.21
2018-12-27T05:43:38.175Z,62.66
2018-12-27T05:46:08.853Z,62.61
2018-12-27T05:48:39.162Z,62.81
2018-12-27T05:51:09.817Z,62.69
2018-12-27T05:53:40.632Z,62.40
2018-12-27T05:56:10.911Z,62.08
2018-12-27T05:58:41.334Z,62.33
2018-12-27T06:01:11.815Z,62.12
2018-12-27T06:03:42.130Z,62.00
2018-12-27T06:06:12.472Z,61.84
2018-12-27T06:08:42.984Z,62.20
2018-12-27T06:11:13.639Z,62.44
2018-12-27T06:13:44.297Z,61.93
2018-12-27T06:16:14.563Z,62.08
2018-12-27T06:18:45.306Z,62.00
2018-12-27T06:21:15.839Z,61.88
2018-12-27T06:23:46.141Z,62.66
2018-12-27T06:26:16.454Z,62.91
2018-12-27T06:28:47.272Z,62.66
2018-12-27T06:31:17.617Z,62.05
2018-12-27T06:33:48.173Z,62.38
2018-12-27T06:36:19.336Z,62.81
2018-12-27T06:38:50.915Z,63.24
2018-12-27T06:41:21.431Z,63.39
2018-12-27T06:43:51.958Z,64.09
2018-12-27T06:46:22.445Z,64.78
2018-12-27T06:48:53.244Z,64.31
2018-12-27T06:51:23.576Z,64.21
2018-12-27T06:53:54.365Z,64.14
2018-12-27T06:56:25.208Z,64.69
2018-12-27T06:58:55.894Z,64.80
2018-12-27T07:01:26.339Z,64.45
2018-12-27T07:03:56.973Z,64.77
2018-12-27T07:06:27.405Z,64.81
2018-12-27T07:08:58.250Z,64.60
2018-12-27T07:11:28.538Z,65.23
2018-12-27T07:13:59.083Z,65.65
2018-12-27T07:16:29.766Z,65.64
2018-12-27T07:19:00.385Z,66.10
2018-12-27T07:21:30.726Z,65.98
2018-12-27T07:24:01.409Z,65.78
2018-12-27T07:26:32.019Z,65.86
2018-12-27T07:29:02.700Z,65.71
2018-12-27T07:31:33.511Z,66.74
2018-12-27T07:34:03.925Z,67.19
2018-12-27T07:36:34.507Z,66.89
2018-12-27T07:39:06.860Z,67.26
2018-12-27T07:41:37.156Z,67.15
2018-12-27T07:44:07.771Z,67.27
2018-12-27T07:46:38.232Z,66.93
2018-12-27T07:49:08.984Z,67.63
2018-12-27T07:51:39.656Z,67.45
2018-12-27T07:54:10.444Z,67.27
2018-12-27T07:56:40.777Z,67.31
2018-12-27T07:59:11.291Z,67.84
2018-12-27T08:01:41.648Z,67.88
2018-12-27T08:04:12.262Z,67.96
2018-12-27T08:06:42.617Z,68.64
2018-12-27T08:09:13.442Z,68.46
2018-12-27T08:11:43.765Z,68.70
2018-12-27T08:14:14.387Z,67.77
2018-12-27T08:16:44.690Z,68.32
2018-12-27T08:19:15.509Z,67.50
2018-12-27T08:21:45.908Z,67.46
2018-12-27T08:24:16.332Z,67.76
2018-12-27T08:26:46.662Z,67.54
2018-12-27T08:29:17.787Z,66.76
2018-12-27T08:31:48.075Z,66.80
2018-12-27T08:34:18.713Z,67.24
2018-12-27T08:36:49.290Z,66.74
2018-12-27T08:39:19.713Z,67.44
2018-12-27T08:41:50.095Z,66.89
2018-12-27T08:44:20.928Z,66.56
2018-12-27T08:46:51.435Z,66.74
2018-12-27T08:49:22.309Z,66.26
2018-12-27T08:51:52.711Z,67.08
2018-12-27T08:54:23.263Z,66.30
2018-12-27T08:56:53.734Z,65.96
2018-12-27T08:59:24.149Z,66.90
2018-12-27T09:01:54.420Z,66.77
2018-12-27T09:04:25.264Z,66.84
2018-12-27T09:06:55.796Z,66.57
2018-12-27T09:09:26.570Z,66.38
2018-12-27T09:11:57.273Z,66.98
2018-12-27T09:14:28.018Z,65.73
2018-12-27T09:16:58.396Z,66.46
2018-12-27T09:19:28.703Z,65.79
2018-12-27T09:21:58.992Z,65.37
2018-12-27T09:24:29.801Z,65.37
2018-12-27T09:27:00.174Z,66.22
2018-12-27T09:29:30.724Z,66.32
2018-12-27T09:32:01.352Z,65.87
2018-12-27T09:34:32.059Z,65.72
2018-12-27T09:37:02.345Z,66.54
2018-12-27T09:39:32.736Z,65.99
2018-12-27T09:42:03.558Z,65.64
2018-12-27T09:44:33.985Z,65.14
2018-12-27T09:47:04.838Z,65.82
2018-12-27T09:49:35.393Z,66.07
2018-12-27T09:52:05.974Z,66.62
2018-12-27T09:54:36.277Z,66.13
2018-12-27T09:57:06.959Z,65.80
2018-12-27T09:59:37.808Z,66.21
2018-12-27T10:02:08.316Z,66.15
2018-12-27T10:04:40.015Z,66.60
2018-12-27T10:07:10.951Z,65.90
2018-12-27T10:09:41.629Z,65.99
2018-12-27T10:12:12.278Z,66.09
2018-12-27T10:14:42.990Z,66.19
2018-12-27T10:17:13.274Z,66.43
2018-12-27T10:19:44.216Z,66.54
2018-12-27T10:22:14.697Z,66.19
2018-12-27T10:24:45.722Z,66.47
2018-12-27T10:27:16.232Z,66.13
2018-12-27T10:29:46.999Z,66.47
2018-12-27T10:32:17.766Z,66.23
2018-12-27T10:34:48.415Z,66.42
2018-12-27T10:37:18.693Z,66.60
2018-12-27T10:39:49.376Z,66.46
2018-12-27T10:42:19.989Z,66.76
2018-12-27T10:44:50.642Z,66.83
2018-12-27T10:47:21.154Z,66.13
2018-12-27T10:49:51.916Z,66.13
2018-12-27T10:52:22.187Z,66.92
2018-12-27T10:54:52.769Z,66.62
2018-12-27T10:57:23.061Z,66.78
2018-12-27T10:59:53.817Z,66.82
2018-12-27T11:02:24.646Z,66.95
2018-12-27T11:04:55.118Z,66.90
2018-12-27T11:07:25.603Z,66.94
2018-12-27T11:09:56.518Z,66.90
2018-12-27T11:12:26.802Z,67.66
2018-12-27T11:14:57.372Z,66.94
2018-12-27T11:17:28.119Z,66.70
2018-12-27T11:19:58.585Z,66.80
2018-12-27T11:22:28.861Z,66.96
2018-12-27T11:24:59.611Z,66.17
2018-12-27T11:27:30.052Z,66.39
2018-12-27T11:30:00.981Z,66.04
2018-12-27T11:32:32.255Z,65.59
2018-12-27T11:35:02.731Z,65.58
2018-12-27T11:37:33.384Z,65.94
2018-12-27T11:40:03.842Z,66.37
2018-12-27T11:42:34.213Z,66.21
2018-12-27T11:45:05.166Z,66.15
2018-12-27T11:47:35.762Z,65.33
2018-12-27T11:50:06.619Z,65.79
2018-12-27T11:52:37.294Z,66.20
2018-12-27T11:55:08.394Z,65.63
2018-12-27T11:57:38.894Z,65.41
2018-12-27T12:00:11.188Z,65.97
2018-12-27T12:02:41.485Z,65.97
2018-12-27T12:05:12.058Z,66.03
2018-12-27T12:07:42.769Z,66.12
2018-12-27T12:10:13.331Z,65.54
2018-12-27T12:12:43.980Z,65.46
2018-12-27T12:15:14.732Z,65.12
2018-12-27T12:17:45.081Z,64.69
2018-12-27T12:20:16.102Z,64.90
2018-12-27T12:22:46.548Z,65.25
2018-12-27T12:25:16.818Z,65.36
2018-12-27T12:27:48.577Z,65.28
2018-12-27T12:30:18.871Z,64.93
2018-12-27T12:32:49.559Z,65.67
2018-12-27T12:35:20.519Z,65.20
2018-12-27T12:37:51.307Z,65.73
2018-12-27T12:40:21.899Z,65.30
2018-12-27T12:42:52.425Z,65.44
2018-12-27T12:45:23.100Z,64.91
2018-12-27T12:47:53.553Z,64.05
2018-12-27T12:50:24.540Z,64.39
2018-12-27T12:52:54.924Z,65.49
2018-12-27T12:55:25.241Z,65.56
2018-12-27T12:57:55.984Z,65.03
2018-12-27T13:00:26.597Z,65.33
2018-12-27T13:02:57.326Z,64.74
2018-12-27T13:05:28.008Z,64.87
2018-12-27T13:07:58.415Z,65.63
2018-12-27T13:10:29.344Z,65.47
2018-12-27T13:12:59.687Z,65.05
2018-12-27T13:15:30.290Z,64.96
2018-12-27T13:18:00.935Z,65.02
2018-12-27T13:20:31.468Z,64.37
2018-12-27T13:23:01.836Z,63.66
2018-12-27T13:25:32.525Z,63.81
2018-12-27T13:28:03.057Z,63.89
2018-12-27T13:30:33.375Z,63.80
2018-12-27T13:33:04.013Z,64.12
2018-12-27T13:35:34.628Z,63.68
2018-12-27T13:38:05.402Z,63.80
2018-12-27T13:40:35.692Z,63.82
2018-12-27T13:43:06.213Z,63.93
2018-12-27T13:45:36.972Z,63.64
2018-12-27T13:48:07.398Z,64.01
2018-12-27T13:50:37.720Z,64.14
2018-12-27T13:53:08.405Z,64.33
2018-12-27T13:55:38.991Z,64.76
2018-12-27T13:58:09.344Z,64.79
2018-12-27T14:00:39.897Z,64.14
2018-12-27T14:03:10.692Z,64.15
2018-12-27T14:05:41.194Z,64.00
2018-12-27T14:08:11.533Z,64.30
2018-12-27T14:10:42.526Z,64.56
2018-12-27T14:13:12.804Z,64.90
2018-12-27T14:15:43.256Z,65.47
2018-12-27T14:18:13.629Z,66.60
2018-12-27T14:20:44.180Z,65.94
2018-12-27T14:23:14.503Z,65.65
2018-12-27T14:25:45.048Z,65.24
2018-12-27T14:28:16.064Z,65.98
2018-12-27T14:30:46.347Z,65.71
2018-12-27T14:33:17.261Z,66.51
2018-12-27T14:35:47.874Z,66.74
2018-12-27T14:38:18.624Z,66.21
2018-12-27T14:40:48.941Z,66.04
2018-12-27T14:43:19.575Z,66.74
2018-12-27T14:45:50.233Z,66.52
2018-12-27T14:48:21.103Z,67.80
2018-12-27T14:50:51.403Z,67.29
2018-12-27T14:53:22.395Z,66.92
2018-12-27T14:55:53.048Z,66.83
2018-12-27T14:58:24.257Z,66.54
2018-12-27T15:00:55.953Z,67.10
2018-12-27T15:03:26.780Z,67.12
2018-12-27T15:05:57.082Z,67.27
2018-12-27T15:08:28.207Z,67.38
2018-12-27T15:10:58.480Z,67.61
2018-12-27T15:13:29.393Z,67.54
2018-12-27T15:15:59.790Z,68.00
2018-12-27T15:18:30.135Z,67.74
2018-12-27T15:21:00.871Z,67.69
2018-12-27T15:23:31.822Z,68.32
2018-12-27T15:26:02.344Z,68.38
2018-12-27T15:28:32.858Z,67.85
2018-12-27T15:31:03.645Z,68.09
2018-12-27T15:33:34.237Z,67.95
2018-12-27T15:36:04.549Z,68.19
2018-12-27T15:38:35.707Z,67.91
2018-12-27T15:41:06.171Z,67.89
2018-12-27T15:43:37.064Z,67.43
2018-12-27T15:46:07.383Z,67.26
2018-12-27T15:48:38.025Z,68.33
2018-12-27T15:51:08.587Z,67.89
2018-12-27T15:53:39.406Z,67.30
2018-12-27T15:56:09.706Z,67.27
2018-12-27T15:58:40.775Z,67.34
2018-12-27T16:01:11.058Z,67.63
2018-12-27T16:03:41.713Z,67.08
2018-12-27T16:06:12.378Z,67.42
2018-12-27T16:08:43.084Z,67.59
2018-12-27T16:11:13.471Z,66.84
2018-12-27T16:13:44.083Z,67.32
2018-12-27T16:16:14.425Z,67.57
2018-12-27T16:18:45.083Z,66.90
2018-12-27T16:21:15.389Z,66.26
2018-12-27T16:23:45.995Z,66.06
2018-12-27T16:26:16.540Z,65.66
2018-12-27T16:28:47.617Z,66.39
2018-12-27T16:31:18.019Z,66.19
2018-12-27T16:33:48.677Z,65.87
2018-12-27T16:36:19.365Z,66.21
2018-12-27T16:38:49.652Z,65.74
2018-12-27T16:41:20.468Z,65.30
2018-12-27T16:43:50.864Z,65.80
2018-12-27T16:46:21.406Z,65.81
2018-12-27T16:48:51.867Z,65.51
2018-12-27T16:51:22.682Z,65.63
2018-12-27T16:53:53.169Z,65.32
2018-12-27T16:56:24.233Z,65.52
2018-12-27T16:58:55.595Z,65.37
2018-12-27T17:01:26.582Z,65.61
2018-12-27T17:03:57.239Z,65.41
2018-12-27T17:06:27.559Z,65.59
2018-12-27T17:08:58.007Z,65.28
2018-12-27T17:11:28.932Z,64.87
2018-12-27T17:13:59.200Z,64.28
2018-12-27T17:16:29.660Z,63.93
2018-12-27T17:19:00.056Z,64.49
2018-12-27T17:21:30.778Z,64.58
2018-12-27T17:24:01.397Z,64.79
2018-12-27T17:26:31.704Z,64.53
2018-12-27T17:29:02.518Z,63.64
2018-12-27T17:31:33.235Z,63.82
2018-12-27T17:34:03.573Z,64.47
2018-12-27T17:36:35.324Z,65.07
2018-12-27T17:39:08.167Z,64.83
2018-12-27T17:41:38.438Z,64.48
2018-12-27T17:44:09.066Z,64.04
2018-12-27T17:46:39.779Z,63.93
2018-12-27T17:49:10.354Z,64.13
2018-12-27T17:51:41.177Z,64.16
2018-12-27T17:54:11.548Z,64.12
2018-12-27T17:56:41.835Z,64.35
2018-12-27T17:59:12.504Z,64.26
2018-12-27T18:01:42.797Z,64.23
2018-12-27T18:04:13.211Z,64.26
2018-12-27T18:06:43.976Z,64.29
2018-12-27T18:09:14.454Z,64.03
2018-12-27T18:11:45.111Z,64.12
2018-12-27T18:14:15.528Z,63.96
2018-12-27T18:16:46.259Z,63.88
2018-12-27T18:19:16.579Z,64.21
2018-12-27T18:21:47.513Z,64.34
2018-12-27T18:24:18.194Z,65.02
2018-12-27T18:26:48.615Z,64.67
2018-12-27T18:29:19.409Z,64.33
2018-12-27T18:31:50.195Z,64.22
2018-12-27T18:34:20.513Z,63.71
2018-12-27T18:36:50.799Z,64.13
2018-12-27T18:39:21.762Z,63.90
2018-12-27T18:41:52.160Z,63.68
2018-12-27T18:44:22.558Z,63.86
2018-12-27T18:46:52.970Z,63.82
2018-12-27T18:49:23.760Z,64.09
2018-12-27T18:51:54.057Z,64.34
2018-12-27T18:54:24.746Z,63.39
2018-12-27T18:56:55.113Z,63.51
2018-12-27T18:59:26.010Z,64.12
2018-12-27T19:01:56.293Z,64.00
2018-12-27T19:04:26.636Z,63.74
2018-12-27T19:06:57.285Z,64.46
2018-12-27T19:09:27.821Z,63.98
2018-12-27T19:12:33.610Z,64.50
2018-12-27T19:15:08.313Z,63.85
2018-12-27T19:17:53.683Z,63.43
2018-12-27T19:20:24.323Z,64.17
2018-12-27T19:23:06.865Z,64.45
2018-12-27T19:25:37.667Z,65.39
2018-12-27T19:28:07.980Z,65.13
2018-12-27T19:30:38.935Z,65.04
2018-12-27T19:33:09.414Z,64.58
2018-12-27T19:35:40.231Z,65.11
2018-12-27T19:38:10.622Z,64.67
2018-12-27T19:40:41.199Z,64.88
2018-12-27T19:43:11.781Z,64.48
2018-12-27T19:45:42.812Z,64.95
2018-12-27T19:48:13.090Z,64.10
2018-12-27T19:50:43.808Z,64.70
2018-12-27T19:53:14.327Z,64.16
2018-12-27T19:55:44.698Z,64.75
2018-12-27T19:58:14.983Z,64.35
2018-12-27T20:00:45.864Z,64.53
2018-12-27T20:03:17.581Z,63.68
2018-12-27T20:05:48.359Z,64.17
2018-12-27T20:08:18.665Z,64.30
2018-12-27T20:10:49.191Z,64.25
2018-12-27T20:13:19.814Z,64.54
2018-12-27T20:15:50.542Z,64.18
2018-12-27T20:18:20.874Z,63.94
2018-12-27T20:20:51.725Z,64.25
2018-12-27T20:23:22.082Z,64.26
2018-12-27T20:25:52.754Z,64.13
2018-12-27T20:28:23.372Z,64.31
2018-12-27T20:30:54.260Z,65.02
2018-12-27T20:33:24.576Z,64.52
2018-12-27T20:35:55.535Z,64.46
2018-12-27T20:38:25.909Z,63.89
2018-12-27T20:40:56.221Z,63.94
2018-12-27T20:43:26.604Z,64.16
2018-12-27T20:45:59.525Z,64.51
2018-12-27T20:48:29.864Z,64.08
2018-12-27T20:51:00.429Z,63.96
2018-12-27T20:53:31.093Z,63.86
2018-12-27T20:56:01.393Z,63.54
2018-12-27T20:58:31.771Z,63.81
2018-12-27T21:01:02.553Z,64.12
2018-12-27T21:03:32.846Z,63.96
2018-12-27T21:06:03.529Z,64.93
2018-12-27T21:08:33.847Z,64.72
2018-12-27T21:11:04.398Z,64.64
2018-12-27T21:13:35.092Z,65.11
2018-12-27T21:16:05.483Z,64.79
2018-12-27T21:18:35.874Z,65.22
2018-12-27T21:21:06.604Z,65.81
2018-12-27T21:23:36.895Z,65.66
2018-12-27T21:26:07.237Z,65.18
2018-12-27T21:28:37.968Z,64.89
2018-12-27T21:31:08.499Z,64.73
2018-12-27T21:33:39.749Z,65.61
2018-12-27T21:36:10.399Z,65.28
2018-12-27T21:38:40.724Z,64.98
2018-12-27T21:41:11.446Z,64.88
2018-12-27T21:43:41.791Z,64.27
2018-12-27T21:46:12.119Z,64.82
2018-12-27T21:48:42.866Z,64.51
2018-12-27T21:51:13.439Z,63.70
2018-12-27T21:53:43.755Z,64.05
2018-12-27T21:56:14.461Z,63.90
2018-12-27T21:58:45.057Z,63.73
2018-12-27T22:01:15.430Z,64.35
2018-12-27T22:03:45.932Z,63.85
2018-12-27T22:06:16.345Z,64.09
2018-12-27T22:08:46.697Z,64.57
2018-12-27T22:11:17.264Z,64.01
2018-12-27T22:13:47.560Z,64.67
2018-12-27T22:16:18.263Z,64.57
2018-12-27T22:18:49.044Z,63.92
2018-12-27T22:21:19.385Z,64.85
2018-12-27T22:23:50.255Z,64.60
2018-12-27T22:26:21.103Z,64.93
2018-12-27T22:28:51.500Z,64.66
2018-12-27T22:31:21.951Z,64.09
2018-12-27T22:33:52.552Z,64.49
2018-12-27T22:36:22.861Z,63.93
2018-12-27T22:38:53.177Z,64.64
2018-12-27T22:41:23.874Z,64.64
2018-12-27T22:43:54.204Z,64.36
2018-12-27T22:46:25.619Z,64.41
2018-12-27T22:48:56.074Z,64.65
2018-12-27T22:51:26.634Z,64.87
2018-12-27T22:53:56.955Z,64.67
2018-12-27T22:56:27.658Z,63.60
2018-12-27T22:58:58.379Z,63.82
2018-12-27T23:01:28.786Z,64.66
2018-12-27T23:03:59.678Z,64.56
2018-12-27T23:06:30.087Z,64.03
2018-12-27T23:09:00.380Z,63.91
2018-12-27T23:11:32.486Z,64.38
2018-12-27T23:14:02.917Z,64.64
2018-12-27T23:16:33.634Z,64.61
2018-12-27T23:19:04.324Z,64.67
2018-12-27T23:21:34.733Z,64.74
2018-12-27T23:24:05.383Z,65.12
2018-12-27T23:26:35.923Z,64.82
2018-12-27T23:29:06.338Z,64.75
2018-12-27T23:31:36.785Z,64.37
2018-12-27T23:34:07.548Z,65.05
2018-12-27T23:36:37.891Z,64.76
2018-12-27T23:39:08.665Z,64.53
2018-12-27T23:41:39.450Z,64.72
2018-12-27T23:44:10.698Z,64.54
2018-12-27T23:46:41.414Z,64.50
2018-12-27T23:49:11.895Z,64.86
2018-12-27T23:51:42.478Z,64.85
2018-12-27T23:54:13.202Z,64.30
2018-12-27T23:56:43.649Z,64.45
2018-12-27T23:59:13.983Z,64.68
